createdAt,value
2018-03-04T00:02:04.196Z,-2.30
2018-03-04T00:04:34.009Z,-2.40
2018-03-04T00:07:03.826Z,-2.51
2018-03-04T00:09:33.661Z,-2.59
2018-03-04T00:12:03.493Z,-2.74
2018-03-04T00:14:33.363Z,-2.83
2018-03-04T00:17:03.754Z,-2.88
2018-03-04T00:19:33.940Z,-3.09
2018-03-04T00:22:03.757Z,-3.07
2018-03-04T00:24:34.318Z,-3.05
2018-03-04T00:27:04.201Z,-3.21
2018-03-04T00:29:34.013Z,-3.33
2018-03-04T00:32:03.824Z,-3.41
2018-03-04T00:34:33.645Z,-3.56
2018-03-04T00:37:03.447Z,-3.46
2018-03-04T00:39:33.001Z,-3.50
2018-03-04T00:42:03.242Z,-3.42
2018-03-04T00:44:33.035Z,-3.33
2018-03-04T00:47:02.845Z,-3.31
2018-03-04T00:49:32.663Z,-3.42
2018-03-04T00:52:02.476Z,-3.36
2018-03-04T00:54:32.642Z,-3.32
2018-03-04T00:57:02.469Z,-3.28
2018-03-04T00:59:32.289Z,-3.37
2018-03-04T01:02:02.131Z,-3.21
2018-03-04T01:04:31.987Z,-3.16
2018-03-04T01:07:01.834Z,-3.19
2018-03-04T01:09:31.657Z,-3.20
2018-03-04T01:12:01.179Z,-3.19
2018-03-04T01:14:30.982Z,-3.32
2018-03-04T01:19:44.972Z,-3.13
2018-03-04T01:22:14.778Z,-3.15
2018-03-04T01:24:44.584Z,-3.17
2018-03-04T01:27:14.377Z,-3.16
2018-03-04T01:29:44.194Z,-3.12
2018-03-04T01:32:14.020Z,-3.19
2018-03-04T01:34:43.827Z,-3.19
2018-03-04T01:37:13.848Z,-3.26
2018-03-04T01:39:43.656Z,-3.26
2018-03-04T01:42:13.326Z,-3.39
2018-03-04T01:44:43.134Z,-3.44
2018-03-04T01:47:12.966Z,-3.45
2018-03-04T01:49:42.762Z,-3.45
2018-03-04T01:52:12.583Z,-3.45
2018-03-04T01:54:42.386Z,-3.45
2018-03-04T01:57:12.242Z,-3.49
2018-03-04T01:59:42.430Z,-3.55
2018-03-04T02:02:12.233Z,-3.68
2018-03-04T02:04:42.042Z,-3.82
2018-03-04T02:07:11.418Z,-3.87
2018-03-04T02:09:41.080Z,-3.78
2018-03-04T02:12:10.868Z,-3.82
2018-03-04T02:14:40.684Z,-3.93
2018-03-04T02:17:10.479Z,-4.07
2018-03-04T02:19:40.305Z,-4.10
2018-03-04T02:22:09.551Z,-4.15
2018-03-04T02:24:39.360Z,-4.04
2018-03-04T02:27:09.155Z,-3.86
2018-03-04T02:29:38.950Z,-3.97
2018-03-04T02:32:08.820Z,-3.86
2018-03-04T02:34:38.374Z,-3.82
2018-03-04T02:37:08.227Z,-3.86
2018-03-04T02:39:38.053Z,-3.83
2018-03-04T02:42:07.891Z,-3.78
2018-03-04T02:44:37.701Z,-3.72
2018-03-04T02:47:07.524Z,-3.74
2018-03-04T02:49:37.335Z,-3.69
2018-03-04T02:52:07.153Z,-3.61
2018-03-04T02:54:36.953Z,-3.58
2018-03-04T02:57:06.766Z,-3.55
2018-03-04T02:59:36.577Z,-3.44
2018-03-04T03:02:06.212Z,-3.42
2018-03-04T03:04:35.790Z,-3.38
2018-03-04T03:07:05.586Z,-3.37
2018-03-04T03:09:35.437Z,-3.28
2018-03-04T03:12:05.298Z,-3.15
2018-03-04T03:14:35.124Z,-3.07
2018-03-04T03:17:04.964Z,-3.04
2018-03-04T03:19:34.798Z,-3.04
2018-03-04T03:22:04.614Z,-3.00
2018-03-04T03:24:34.189Z,-3.01
2018-03-04T03:27:04.034Z,-3.02
2018-03-04T03:29:33.869Z,-3.07
2018-03-04T03:32:03.686Z,-3.05
2018-03-04T03:34:33.502Z,-2.84
2018-03-04T03:37:03.317Z,-2.91
2018-03-04T03:39:33.142Z,-2.88
2018-03-04T03:42:02.981Z,-2.87
2018-03-04T03:44:32.828Z,-2.88
2018-03-04T03:47:02.664Z,-2.88
2018-03-04T03:49:32.464Z,-2.88
2018-03-04T03:52:02.016Z,-2.89
2018-03-04T03:54:31.832Z,-2.88
2018-03-04T03:57:01.629Z,-2.88
2018-03-04T03:59:31.433Z,-2.87
2018-03-04T04:02:00.903Z,-2.85
2018-03-04T04:04:30.728Z,-2.82
2018-03-04T04:07:00.538Z,-2.78
2018-03-04T04:09:30.356Z,-2.75
2018-03-04T04:12:00.191Z,-2.75
2018-03-04T04:14:30.069Z,-2.57
2018-03-04T04:16:59.867Z,-2.69
2018-03-04T04:19:29.504Z,-2.51
2018-03-04T04:21:59.313Z,-2.47
2018-03-04T04:24:29.151Z,-2.60
2018-03-04T04:26:59.173Z,-2.74
2018-03-04T04:29:28.985Z,-2.79
2018-03-04T04:31:58.808Z,-3.02
2018-03-04T04:34:28.623Z,-3.07
2018-03-04T04:36:58.469Z,-3.01
2018-03-04T04:39:28.277Z,-2.93
2018-03-04T04:41:58.083Z,-3.05
2018-03-04T04:44:28.050Z,-3.09
2018-03-04T04:46:57.842Z,-3.10
2018-03-04T04:49:27.658Z,-3.28
2018-03-04T04:51:57.494Z,-3.24
2018-03-04T04:54:27.307Z,-3.20
2018-03-04T04:56:57.117Z,-2.98
2018-03-04T04:59:26.928Z,-3.15
2018-03-04T05:01:56.737Z,-3.24
2018-03-04T05:04:26.555Z,-3.22
2018-03-04T05:06:56.360Z,-3.50
2018-03-04T05:09:26.155Z,-3.48
2018-03-04T05:11:55.978Z,-3.31
2018-03-04T05:14:25.823Z,-3.30
2018-03-04T05:16:55.659Z,-3.55
2018-03-04T05:19:25.484Z,-3.58
2018-03-04T05:21:55.297Z,-3.68
2018-03-04T05:24:25.133Z,-3.48
2018-03-04T05:26:54.951Z,-3.68
2018-03-04T05:29:25.019Z,-3.61
2018-03-04T05:31:54.824Z,-3.53
2018-03-04T05:34:24.676Z,-3.73
2018-03-04T05:36:54.518Z,-3.61
2018-03-04T05:39:24.320Z,-3.89
2018-03-04T05:41:54.133Z,-4.00
2018-03-04T05:44:23.952Z,-3.84
2018-03-04T05:46:53.762Z,-3.97
2018-03-04T05:49:27.084Z,-3.96
2018-03-04T05:51:57.104Z,-3.93
2018-03-04T05:54:26.911Z,-3.75
2018-03-04T05:56:56.742Z,-3.74
2018-03-04T05:59:26.546Z,-3.66
2018-03-04T06:01:57.859Z,-4.03
2018-03-04T06:04:27.688Z,-3.99
2018-03-04T06:06:57.512Z,-3.79
2018-03-04T06:09:27.343Z,-3.95
2018-03-04T06:11:57.145Z,-3.77
2018-03-04T06:14:26.967Z,-3.66
2018-03-04T06:16:56.775Z,-3.69
2018-03-04T06:19:26.572Z,-3.54
2018-03-04T06:21:56.404Z,-3.43
2018-03-04T06:24:26.204Z,-3.21
2018-03-04T06:26:56.004Z,-3.37
2018-03-04T06:29:25.822Z,-3.44
2018-03-04T06:31:55.625Z,-3.41
2018-03-04T06:34:25.106Z,-3.40
2018-03-04T06:36:54.926Z,-3.20
2018-03-04T06:39:24.756Z,-3.18
2018-03-04T06:41:54.580Z,-3.12
2018-03-04T06:44:24.384Z,-3.09
2018-03-04T06:46:54.192Z,-3.16
2018-03-04T06:49:23.988Z,-3.25
2018-03-04T06:51:53.829Z,-3.28
2018-03-04T06:54:23.509Z,-3.08
2018-03-04T06:56:53.318Z,-3.53
2018-03-04T06:59:23.123Z,-3.54
2018-03-04T07:01:52.929Z,-3.51
2018-03-04T07:04:22.738Z,-3.32
2018-03-04T07:06:52.516Z,-3.10
2018-03-04T07:09:22.353Z,-2.98
2018-03-04T07:11:52.162Z,-2.88
2018-03-04T07:14:21.979Z,-3.18
2018-03-04T07:16:51.802Z,-2.97
2018-03-04T07:19:21.662Z,-2.84
2018-03-04T07:21:51.456Z,-2.70
2018-03-04T07:24:21.273Z,-2.70
2018-03-04T07:26:54.859Z,-2.85
2018-03-04T07:29:24.662Z,-2.81
2018-03-04T07:31:54.471Z,-2.58
2018-03-04T07:34:24.296Z,-2.30
2018-03-04T07:36:54.119Z,-2.32
2018-03-04T07:39:23.929Z,-2.10
2018-03-04T07:41:53.925Z,-1.93
2018-03-04T07:44:23.743Z,-1.91
2018-03-04T07:46:53.559Z,-2.01
2018-03-04T07:49:23.363Z,-1.78
2018-03-04T07:51:53.176Z,-1.73
2018-03-04T07:54:22.991Z,-2.06
2018-03-04T07:56:52.820Z,-2.17
2018-03-04T07:59:22.657Z,-1.49
2018-03-04T08:01:52.473Z,-1.56
2018-03-04T08:04:22.292Z,-1.38
2018-03-04T08:06:52.097Z,-0.94
2018-03-04T08:09:21.896Z,-1.35
2018-03-04T08:11:51.702Z,-1.42
2018-03-04T08:14:21.505Z,-0.91
2018-03-04T08:16:51.324Z,-0.30
2018-03-04T08:19:21.144Z,-0.41
2018-03-04T08:21:50.941Z,-0.79
2018-03-04T08:24:31.748Z,-0.09
2018-03-04T08:27:12.706Z,-0.22
2018-03-04T08:29:42.239Z,-0.72
2018-03-04T08:32:11.899Z,-0.13
2018-03-04T08:34:41.723Z,-0.07
2018-03-04T08:37:11.203Z,-0.80
2018-03-04T08:39:40.753Z,-0.83
2018-03-04T08:42:10.553Z,-0.20
2018-03-04T08:44:40.366Z,-0.51
2018-03-04T08:47:10.158Z,-0.43
2018-03-04T08:49:39.961Z,-0.53
2018-03-04T08:52:09.765Z,-0.32
2018-03-04T08:54:39.606Z,-1.02
2018-03-04T08:57:09.445Z,-0.32
2018-03-04T08:59:39.248Z,0.06
2018-03-04T09:02:09.072Z,0.29
2018-03-04T09:04:38.624Z,0.48
2018-03-04T09:07:08.438Z,0.63
2018-03-04T09:09:38.248Z,0.69
2018-03-04T09:12:08.053Z,1.00
2018-03-04T09:14:37.996Z,1.14
2018-03-04T09:17:07.975Z,1.94
2018-03-04T09:19:37.506Z,1.53
2018-03-04T09:22:07.610Z,0.77
2018-03-04T09:24:37.643Z,1.29
2018-03-04T09:27:07.485Z,1.92
2018-03-04T09:29:37.284Z,0.63
2018-03-04T09:32:07.018Z,0.18
2018-03-04T09:34:36.844Z,1.22
2018-03-04T09:37:06.698Z,1.37
2018-03-04T09:39:36.500Z,1.23
2018-03-04T09:42:06.319Z,0.68
2018-03-04T09:44:36.149Z,0.76
2018-03-04T09:47:05.980Z,1.59
2018-03-04T09:49:35.818Z,1.31
2018-03-04T09:52:05.616Z,2.41
2018-03-04T09:54:35.423Z,0.93
2018-03-04T09:57:05.227Z,1.40
2018-03-04T09:59:35.056Z,2.76
2018-03-04T10:02:04.870Z,2.99
2018-03-04T10:04:35.054Z,2.68
2018-03-04T10:07:08.716Z,1.58
2018-03-04T10:09:39.115Z,2.69
2018-03-04T10:12:08.933Z,2.90
2018-03-04T10:14:38.787Z,2.83
2018-03-04T10:17:08.645Z,3.18
2018-03-04T10:19:38.217Z,2.67
2018-03-04T10:22:08.941Z,4.47
2018-03-04T10:24:38.825Z,2.72
2018-03-04T10:27:09.364Z,5.38
2018-03-04T10:29:39.208Z,4.46
2018-03-04T10:32:09.889Z,3.58
2018-03-04T10:34:39.741Z,4.65
2018-03-04T10:37:11.538Z,5.93
2018-03-04T10:39:41.462Z,6.18
2018-03-04T10:42:11.585Z,5.59
2018-03-04T10:44:41.418Z,4.36
2018-03-04T10:47:11.238Z,6.48
2018-03-04T10:49:41.092Z,5.94
2018-03-04T10:52:11.342Z,7.07
2018-03-04T10:54:41.195Z,7.25
2018-03-04T10:57:11.007Z,8.58
2018-03-04T10:59:40.804Z,9.47
2018-03-04T11:02:15.945Z,11.47
2018-03-04T11:04:49.939Z,10.87
2018-03-04T11:07:24.265Z,7.53
2018-03-04T11:09:54.068Z,7.88
2018-03-04T11:12:23.900Z,9.09
2018-03-04T11:14:53.697Z,8.03
2018-03-04T11:17:23.571Z,8.29
2018-03-04T11:19:53.362Z,9.38
2018-03-04T11:22:23.176Z,7.53
2018-03-04T11:24:52.993Z,5.41
2018-03-04T11:27:22.787Z,7.81
2018-03-04T11:29:52.596Z,6.82
2018-03-04T11:32:22.795Z,6.16
2018-03-04T11:34:52.635Z,7.45
2018-03-04T11:37:22.453Z,7.36
2018-03-04T11:39:52.266Z,6.46
2018-03-04T11:42:22.092Z,6.86
2018-03-04T11:44:52.969Z,7.96
2018-03-04T11:47:22.766Z,8.97
2018-03-04T11:49:53.163Z,9.13
2018-03-04T11:52:22.953Z,8.97
2018-03-04T11:54:52.811Z,10.22
2018-03-04T11:57:22.604Z,9.50
2018-03-04T11:59:52.424Z,11.06
2018-03-04T12:02:22.247Z,11.25
2018-03-04T12:04:52.060Z,11.75
2018-03-04T12:07:21.918Z,9.12
2018-03-04T12:09:51.919Z,10.88
2018-03-04T12:12:21.713Z,11.01
2018-03-04T12:14:52.055Z,10.63
2018-03-04T12:17:21.855Z,8.52
2018-03-04T12:19:51.706Z,6.87
2018-03-04T12:22:21.533Z,8.97
2018-03-04T12:24:51.336Z,8.50
2018-03-04T12:27:21.155Z,9.41
2018-03-04T12:29:50.990Z,8.42
2018-03-04T12:32:20.689Z,9.84
2018-03-04T12:34:50.505Z,8.40
2018-03-04T12:37:21.271Z,9.37
2018-03-04T12:39:51.101Z,7.15
2018-03-04T12:42:21.012Z,8.83
2018-03-04T12:44:50.827Z,9.14
2018-03-04T12:47:20.888Z,10.13
2018-03-04T12:49:50.704Z,9.84
2018-03-04T12:52:20.537Z,11.25
2018-03-04T12:54:51.444Z,11.83
2018-03-04T12:57:21.916Z,11.88
2018-03-04T12:59:52.078Z,12.35
2018-03-04T13:02:22.055Z,9.81
2018-03-04T13:04:51.928Z,10.13
2018-03-04T13:07:21.741Z,11.20
2018-03-04T13:09:51.054Z,11.73
2018-03-04T13:12:20.885Z,11.13
2018-03-04T13:14:54.699Z,11.58
2018-03-04T13:17:24.234Z,13.26
2018-03-04T13:19:54.028Z,13.44
2018-03-04T13:22:23.904Z,14.18
2018-03-04T13:24:54.598Z,10.94
2018-03-04T13:27:24.468Z,11.63
2018-03-04T13:29:54.020Z,13.36
2018-03-04T13:32:23.524Z,16.38
2018-03-04T13:34:56.964Z,16.56
2018-03-04T13:37:26.648Z,19.48
2018-03-04T13:39:56.562Z,22.56
2018-03-04T13:42:26.091Z,22.79
2018-03-04T13:44:55.834Z,20.41
2018-03-04T13:47:25.379Z,18.33
2018-03-04T13:49:54.902Z,18.90
2018-03-04T13:52:24.436Z,20.93
2018-03-04T13:54:53.961Z,22.98
2018-03-04T13:57:23.482Z,21.96
2018-03-04T13:59:52.997Z,21.28
2018-03-04T14:02:22.553Z,18.62
2018-03-04T14:04:52.114Z,16.36
2018-03-04T14:07:21.451Z,19.67
2018-03-04T14:09:50.989Z,19.73
2018-03-04T14:12:24.354Z,22.29
2018-03-04T14:14:53.880Z,21.29
2018-03-04T14:17:23.405Z,23.52
2018-03-04T14:19:53.048Z,19.27
2018-03-04T14:22:22.588Z,21.41
2018-03-04T14:24:52.193Z,20.67
2018-03-04T14:27:21.710Z,19.13
2018-03-04T14:29:51.263Z,19.41
2018-03-04T14:32:20.782Z,17.93
2018-03-04T14:34:50.828Z,15.96
2018-03-04T14:37:20.460Z,18.96
2018-03-04T14:39:50.082Z,15.69
2018-03-04T14:42:19.607Z,17.62
2018-03-04T14:44:49.118Z,13.60
2018-03-04T14:47:18.641Z,15.97
2018-03-04T14:49:48.170Z,15.06
2018-03-04T14:52:17.700Z,14.52
2018-03-04T14:54:47.532Z,11.69
2018-03-04T14:57:17.370Z,9.63
2018-03-04T14:59:47.220Z,8.36
2018-03-04T15:02:17.529Z,7.14
2018-03-04T15:04:47.197Z,6.07
2018-03-04T15:07:17.036Z,5.86
2018-03-04T15:09:46.850Z,6.11
2018-03-04T15:12:16.663Z,5.94
2018-03-04T15:14:46.486Z,5.95
2018-03-04T15:17:16.304Z,6.11
2018-03-04T15:19:46.139Z,6.05
2018-03-04T15:22:15.865Z,5.86
2018-03-04T15:24:45.746Z,5.30
2018-03-04T15:27:15.674Z,5.18
2018-03-04T15:29:46.574Z,5.38
2018-03-04T15:32:16.539Z,5.20
2018-03-04T15:34:46.349Z,4.89
2018-03-04T15:37:16.166Z,5.27
2018-03-04T15:39:46.003Z,4.83
2018-03-04T15:42:15.829Z,4.50
2018-03-04T15:44:45.641Z,4.42
2018-03-04T15:47:19.471Z,4.23
2018-03-04T15:49:49.299Z,4.17
2018-03-04T15:52:19.278Z,4.04
2018-03-04T15:54:49.113Z,4.06
2018-03-04T15:57:18.914Z,3.88
2018-03-04T15:59:48.708Z,3.78
2018-03-04T16:02:18.324Z,3.60
2018-03-04T16:04:48.155Z,3.35
2018-03-04T16:07:18.028Z,3.33
2018-03-04T16:09:48.716Z,3.15
2018-03-04T16:12:18.562Z,3.24
2018-03-04T16:14:49.015Z,3.01
2018-03-04T16:17:18.818Z,2.77
2018-03-04T16:19:48.672Z,2.76
2018-03-04T16:22:18.592Z,2.67
2018-03-04T16:24:48.427Z,2.37
2018-03-04T16:27:18.276Z,2.31
2018-03-04T16:29:48.192Z,2.16
2018-03-04T16:32:18.034Z,1.99
2018-03-04T16:34:47.845Z,1.90
2018-03-04T16:37:17.645Z,1.83
2018-03-04T16:39:48.063Z,1.74
2018-03-04T16:42:18.677Z,1.65
2018-03-04T16:44:48.478Z,1.57
2018-03-04T16:47:18.279Z,1.43
2018-03-04T16:49:48.117Z,1.42
2018-03-04T16:52:17.941Z,1.35
2018-03-04T16:54:47.966Z,1.26
2018-03-04T16:57:17.735Z,1.25
2018-03-04T16:59:47.574Z,1.16
2018-03-04T17:02:17.433Z,1.09
2018-03-04T17:04:47.241Z,1.03
2018-03-04T17:07:17.061Z,0.80
2018-03-04T17:09:46.875Z,0.70
2018-03-04T17:12:16.711Z,0.78
2018-03-04T17:14:46.282Z,0.79
2018-03-04T17:17:16.099Z,0.53
2018-03-04T17:19:45.911Z,0.37
2018-03-04T17:22:15.523Z,0.34
2018-03-04T17:24:45.344Z,0.36
2018-03-04T17:27:15.165Z,0.21
2018-03-04T17:29:44.985Z,0.45
2018-03-04T17:32:14.837Z,0.27
2018-03-04T17:34:44.811Z,0.30
2018-03-04T17:37:14.651Z,0.11
2018-03-04T17:39:44.757Z,0.07
2018-03-04T17:42:14.629Z,-0.14
2018-03-04T17:44:44.444Z,-0.31
2018-03-04T17:47:14.267Z,-0.42
2018-03-04T17:49:44.091Z,-0.26
2018-03-04T17:52:13.892Z,-0.10
2018-03-04T17:54:43.726Z,-0.14
2018-03-04T17:57:13.546Z,0.00
2018-03-04T17:59:43.334Z,0.06
2018-03-04T18:02:13.147Z,0.09
2018-03-04T18:04:42.964Z,-0.13
2018-03-04T18:07:12.764Z,-0.33
2018-03-04T18:09:42.621Z,-0.57
2018-03-04T18:12:12.428Z,-0.73
2018-03-04T18:14:42.241Z,-0.88
2018-03-04T18:17:12.029Z,-1.03
2018-03-04T18:19:41.828Z,-1.18
2018-03-04T18:22:11.644Z,-1.32
2018-03-04T18:24:41.485Z,-1.46
2018-03-04T18:27:11.341Z,-1.53
2018-03-04T18:29:41.177Z,-1.63
2018-03-04T18:32:10.702Z,-1.75
2018-03-04T18:34:40.708Z,-1.85
2018-03-04T18:37:10.532Z,-1.95
2018-03-04T18:39:40.382Z,-1.96
2018-03-04T18:42:10.192Z,-1.99
2018-03-04T18:44:40.196Z,-2.07
2018-03-04T18:47:10.055Z,-2.07
2018-03-04T18:49:39.884Z,-2.08
2018-03-04T18:52:10.044Z,-2.14
2018-03-04T18:54:39.889Z,-2.20
2018-03-04T18:57:09.703Z,-2.12
2018-03-04T18:59:43.217Z,-2.05
2018-03-04T19:02:13.363Z,-2.02
2018-03-04T19:04:43.185Z,-2.03
2018-03-04T19:07:13.020Z,-2.15
2018-03-04T19:09:42.681Z,-2.26
2018-03-04T19:12:12.312Z,-2.34
2018-03-04T19:14:42.155Z,-2.44
2018-03-04T19:17:12.170Z,-2.50
2018-03-04T19:19:42.041Z,-2.48
2018-03-04T19:22:11.871Z,-2.60
2018-03-04T19:24:42.397Z,-2.64
2018-03-04T19:27:12.974Z,-2.58
2018-03-04T19:29:42.805Z,-2.58
2018-03-04T19:32:12.637Z,-2.62
2018-03-04T19:34:42.242Z,-2.51
2018-03-04T19:37:12.888Z,-2.45
2018-03-04T19:39:42.712Z,-2.39
2018-03-04T19:42:12.501Z,-2.38
2018-03-04T19:44:42.292Z,-2.42
2018-03-04T19:47:12.107Z,-2.44
2018-03-04T19:49:41.917Z,-2.52
2018-03-04T19:52:11.712Z,-2.40
2018-03-04T19:54:41.526Z,-2.53
2018-03-04T19:57:11.377Z,-2.56
2018-03-04T19:59:41.198Z,-2.55
2018-03-04T20:02:11.019Z,-2.64
2018-03-04T20:04:40.939Z,-2.57
2018-03-04T20:07:10.731Z,-2.61
2018-03-04T20:09:41.151Z,-2.58
2018-03-04T20:12:11.128Z,-2.49
2018-03-04T20:14:41.205Z,-2.07
2018-03-04T20:17:11.250Z,-1.71
2018-03-04T20:19:41.132Z,-1.86
2018-03-04T20:22:11.257Z,-2.04
2018-03-04T20:24:41.683Z,-1.95
2018-03-04T20:27:12.360Z,-2.14
2018-03-04T20:29:42.200Z,-2.25
2018-03-04T20:32:11.999Z,-2.30
2018-03-04T20:34:41.820Z,-2.41
2018-03-04T20:37:11.825Z,-2.52
2018-03-04T20:39:41.643Z,-2.60
2018-03-04T20:42:11.452Z,-2.69
2018-03-04T20:44:41.268Z,-2.74
2018-03-04T20:47:11.069Z,-2.81
2018-03-04T20:49:40.887Z,-2.82
2018-03-04T20:52:10.702Z,-2.84
2018-03-04T20:54:40.527Z,-2.93
2018-03-04T20:57:10.335Z,-2.99
2018-03-04T20:59:40.145Z,-3.07
2018-03-04T21:02:09.974Z,-3.09
2018-03-04T21:04:40.292Z,-3.10
2018-03-04T21:07:11.296Z,-3.11
2018-03-04T21:09:40.852Z,-3.09
2018-03-04T21:12:10.724Z,-3.15
2018-03-04T21:14:40.538Z,-3.16
2018-03-04T21:17:10.432Z,-3.14
2018-03-04T21:19:40.294Z,-3.14
2018-03-04T21:22:10.640Z,-3.11
2018-03-04T21:24:40.537Z,-3.08
2018-03-04T21:27:10.344Z,-3.03
2018-03-04T21:29:40.171Z,-2.87
2018-03-04T21:32:10.020Z,-2.66
2018-03-04T21:34:39.857Z,-2.52
2018-03-04T21:37:09.752Z,-2.08
2018-03-04T21:39:39.381Z,-2.09
2018-03-04T21:42:08.969Z,-1.98
2018-03-04T21:44:38.966Z,-2.14
2018-03-04T21:47:08.538Z,-2.07
2018-03-04T21:49:38.718Z,-1.89
2018-03-04T21:52:08.674Z,-2.08
2018-03-04T21:54:38.484Z,-2.11
2018-03-04T21:57:08.019Z,-2.24
2018-03-04T21:59:37.854Z,-2.37
2018-03-04T22:02:07.662Z,-2.40
2018-03-04T22:04:41.601Z,-2.46
2018-03-04T22:07:11.441Z,-2.31
2018-03-04T22:09:41.246Z,-2.37
2018-03-04T22:12:11.091Z,-1.99
2018-03-04T22:14:40.900Z,-1.83
2018-03-04T22:17:10.744Z,-1.86
2018-03-04T22:19:40.556Z,-1.73
2018-03-04T22:22:10.368Z,-1.51
2018-03-04T22:24:40.194Z,-1.29
2018-03-04T22:27:10.189Z,-1.47
2018-03-04T22:29:40.007Z,-1.68
2018-03-04T22:32:09.693Z,-1.77
2018-03-04T22:34:39.512Z,-1.84
2018-03-04T22:37:09.345Z,-1.94
2018-03-04T22:39:39.149Z,-1.97
2018-03-04T22:42:08.968Z,-1.99
2018-03-04T22:44:38.776Z,-2.14
2018-03-04T22:47:08.331Z,-2.15
2018-03-04T22:49:37.840Z,-2.02
2018-03-04T22:52:07.659Z,-1.88
2018-03-04T22:54:37.476Z,-1.71
2018-03-04T22:57:07.282Z,-1.70
2018-03-04T22:59:37.113Z,-1.56
2018-03-04T23:02:06.908Z,-1.54
2018-03-04T23:04:36.547Z,-1.59
2018-03-04T23:07:06.084Z,-1.65
2018-03-04T23:09:35.626Z,-1.50
2018-03-04T23:12:05.441Z,-1.67
2018-03-04T23:14:35.365Z,-1.62
2018-03-04T23:17:04.947Z,-1.84
2018-03-04T23:19:34.780Z,-1.78
2018-03-04T23:22:04.455Z,-1.72
2018-03-04T23:24:34.010Z,-1.69
2018-03-04T23:27:03.525Z,-1.66
2018-03-04T23:29:33.074Z,-1.64
2018-03-04T23:32:02.606Z,-1.66
2018-03-04T23:34:32.116Z,-1.72
2018-03-04T23:37:01.658Z,-1.63
2018-03-04T23:39:31.196Z,-1.66
2018-03-04T23:42:01.161Z,-1.73
2018-03-04T23:44:30.685Z,-1.64
2018-03-04T23:47:00.495Z,-1.62
2018-03-04T23:49:30.029Z,-1.66
2018-03-04T23:51:59.885Z,-1.73
2018-03-04T23:54:29.406Z,-1.75
2018-03-04T23:56:59.248Z,-1.72
2018-03-04T23:59:28.785Z,-1.77
